createdAt,value
2024-01-01T00:00:47.875Z,6.70
2024-01-01T00:03:16.497Z,6.70
2024-01-01T00:05:43.425Z,6.70
2024-01-01T00:08:10.452Z,6.80
2024-01-01T00:10:37.462Z,6.70
2024-01-01T00:13:04.509Z,6.80
2024-01-01T00:15:31.510Z,6.70
2024-01-01T00:17:58.438Z,6.70
2024-01-01T00:20:26.138Z,6.70
2024-01-01T00:22:53.312Z,6.80
2024-01-01T00:25:20.166Z,6.70
2024-01-01T00:27:46.892Z,6.70
2024-01-01T00:30:13.900Z,6.70
2024-01-01T00:32:40.893Z,6.70
2024-01-01T00:35:08.553Z,6.60
2024-01-01T00:37:35.650Z,6.70
2024-01-01T00:40:05.717Z,6.70
2024-01-01T00:42:34.288Z,6.70
2024-01-01T00:45:04.133Z,6.70
2024-01-01T00:47:31.062Z,6.70
2024-01-01T00:49:59.345Z,6.70
2024-01-01T00:52:26.326Z,6.60
2024-01-01T00:54:53.624Z,6.70
2024-01-01T00:57:20.504Z,6.60
2024-01-01T00:59:47.185Z,6.60
2024-01-01T01:02:14.165Z,6.60
2024-01-01T01:04:56.301Z,6.70
2024-01-01T01:07:31.678Z,6.60
2024-01-01T01:09:58.626Z,6.60
2024-01-01T01:12:27.789Z,6.60
2024-01-01T01:14:54.527Z,6.50
2024-01-01T01:17:21.467Z,6.50
2024-01-01T01:19:48.258Z,6.50
2024-01-01T01:22:15.069Z,6.50
2024-01-01T01:24:41.906Z,6.60
2024-01-01T01:27:08.970Z,6.60
2024-01-01T01:29:35.819Z,6.60
2024-01-01T01:32:02.715Z,6.60
2024-01-01T01:34:29.638Z,6.50
2024-01-01T01:36:56.482Z,6.50
2024-01-01T01:39:23.307Z,6.50
2024-01-01T01:41:50.139Z,6.40
2024-01-01T01:44:16.842Z,6.50
2024-01-01T01:46:43.776Z,6.40
2024-01-01T01:49:10.810Z,6.50
2024-01-01T01:51:37.507Z,6.50
2024-01-01T01:54:04.304Z,6.50
2024-01-01T01:56:31.146Z,6.40
2024-01-01T01:58:57.926Z,6.40
2024-01-01T02:01:24.868Z,6.40
2024-01-01T02:03:51.926Z,6.40
2024-01-01T02:06:18.793Z,6.40
2024-01-01T02:08:45.630Z,6.40
2024-01-01T02:11:12.631Z,6.40
2024-01-01T02:13:39.680Z,6.30
2024-01-01T02:16:06.693Z,6.30
2024-01-01T02:18:33.753Z,6.30
2024-01-01T02:21:00.621Z,6.20
2024-01-01T02:23:27.519Z,6.20
2024-01-01T02:25:54.369Z,6.20
2024-01-01T02:28:21.182Z,6.10
2024-01-01T02:30:47.966Z,6.20
2024-01-01T02:33:15.717Z,6.10
2024-01-01T02:35:42.817Z,6.10
2024-01-01T02:38:10.217Z,6.10
2024-01-01T02:40:38.275Z,6.20
2024-01-01T02:43:05.143Z,6.10
2024-01-01T02:45:33.008Z,6.00
2024-01-01T02:48:00.225Z,6.00
2024-01-01T02:50:27.124Z,6.00
2024-01-01T02:52:53.957Z,6.00
2024-01-01T02:55:20.840Z,6.00
2024-01-01T02:57:47.659Z,6.00
2024-01-01T03:00:16.400Z,6.00
2024-01-01T03:02:43.751Z,6.10
2024-01-01T03:05:11.026Z,6.10
2024-01-01T03:07:38.012Z,6.10
2024-01-01T03:10:06.148Z,6.10
2024-01-01T03:12:34.195Z,6.00
2024-01-01T03:15:02.128Z,6.00
2024-01-01T03:17:29.307Z,6.00
2024-01-01T03:19:56.137Z,6.00
2024-01-01T03:22:22.999Z,5.90
2024-01-01T03:24:49.712Z,6.00
2024-01-01T03:27:16.662Z,6.00
2024-01-01T03:29:43.532Z,6.00
2024-01-01T03:32:10.470Z,6.10
2024-01-01T03:34:37.313Z,5.90
2024-01-01T03:37:06.231Z,6.00
2024-01-01T03:39:33.123Z,5.90
2024-01-01T03:41:59.915Z,5.80
2024-01-01T03:44:26.719Z,5.70
2024-01-01T03:46:53.482Z,5.60
2024-01-01T03:49:20.371Z,5.50
2024-01-01T03:51:47.288Z,5.40
2024-01-01T03:54:14.192Z,5.50
2024-01-01T03:56:40.937Z,5.60
2024-01-01T03:59:07.836Z,5.60
2024-01-01T04:01:36.399Z,5.50
2024-01-01T04:04:05.096Z,5.50
2024-01-01T04:06:31.981Z,5.50
2024-01-01T04:08:59.124Z,5.50
2024-01-01T04:11:25.811Z,5.50
2024-01-01T04:13:52.588Z,5.50
2024-01-01T04:16:19.497Z,5.50
2024-01-01T04:18:48.742Z,5.50
2024-01-01T04:21:15.662Z,5.50
2024-01-01T04:23:42.692Z,5.60
2024-01-01T04:26:09.544Z,5.50
2024-01-01T04:28:36.527Z,5.50
2024-01-01T04:31:03.527Z,5.60
2024-01-01T04:33:30.459Z,5.50
2024-01-01T04:35:57.322Z,5.50
2024-01-01T04:38:25.329Z,5.60
2024-01-01T04:40:52.200Z,5.60
2024-01-01T04:43:19.120Z,5.60
2024-01-01T04:45:48.811Z,5.60
2024-01-01T04:48:15.870Z,5.60
2024-01-01T04:50:42.739Z,5.60
2024-01-01T04:53:09.558Z,5.60
2024-01-01T04:55:36.409Z,5.60
2024-01-01T04:58:03.406Z,5.60
2024-01-01T05:00:30.348Z,5.70
2024-01-01T05:02:57.502Z,5.60
2024-01-01T05:05:24.411Z,5.60
2024-01-01T05:07:54.295Z,5.60
2024-01-01T05:10:21.164Z,5.60
2024-01-01T05:12:47.951Z,5.60
2024-01-01T05:15:14.976Z,5.60
2024-01-01T05:17:42.265Z,5.60
2024-01-01T05:20:10.468Z,5.70
2024-01-01T05:22:37.449Z,5.60
2024-01-01T05:25:05.645Z,5.70
2024-01-01T05:27:32.565Z,5.70
2024-01-01T05:29:59.259Z,5.60
2024-01-01T05:32:26.318Z,5.60
2024-01-01T05:34:53.259Z,5.60
2024-01-01T05:37:20.103Z,5.60
2024-01-01T05:39:46.899Z,5.60
2024-01-01T05:42:13.837Z,5.60
2024-01-01T05:44:40.656Z,5.60
2024-01-01T05:47:07.437Z,5.70
2024-01-01T05:49:34.397Z,5.60
2024-01-01T05:52:03.492Z,5.60
2024-01-01T05:54:30.660Z,5.70
2024-01-01T05:56:57.497Z,5.60
2024-01-01T05:59:24.280Z,5.60
2024-01-01T06:01:51.109Z,5.70
2024-01-01T06:04:18.076Z,5.60
2024-01-01T06:06:44.821Z,5.60
2024-01-01T06:09:11.690Z,5.70
2024-01-01T06:11:38.657Z,5.70
2024-01-01T06:14:05.692Z,5.70
2024-01-01T06:16:32.624Z,5.70
2024-01-01T06:18:59.734Z,5.70
2024-01-01T06:21:27.682Z,5.70
2024-01-01T06:23:54.538Z,5.70
2024-01-01T06:26:21.428Z,5.70
2024-01-01T06:28:48.212Z,5.70
2024-01-01T06:31:15.212Z,5.70
2024-01-01T06:33:42.008Z,5.80
2024-01-01T06:36:11.833Z,5.70
2024-01-01T06:38:41.378Z,5.70
2024-01-01T06:41:08.447Z,5.70
2024-01-01T06:43:35.408Z,5.80
2024-01-01T06:46:02.424Z,5.80
2024-01-01T06:48:29.342Z,5.80
2024-01-01T06:50:56.303Z,5.80
2024-01-01T06:53:23.160Z,5.70
2024-01-01T06:55:50.039Z,5.70
2024-01-01T06:58:16.803Z,5.70
2024-01-01T07:00:44.805Z,5.70
2024-01-01T07:03:11.767Z,5.70
2024-01-01T07:05:38.677Z,5.70
2024-01-01T07:08:06.397Z,5.70
2024-01-01T07:10:33.652Z,5.70
2024-01-01T07:13:00.340Z,5.70
2024-01-01T07:15:27.138Z,5.70
2024-01-01T07:17:54.760Z,5.70
2024-01-01T07:20:22.472Z,5.70
2024-01-01T07:22:49.472Z,5.70
2024-01-01T07:25:16.328Z,5.70
2024-01-01T07:27:43.566Z,5.80
2024-01-01T07:30:10.695Z,5.80
2024-01-01T07:32:37.540Z,5.80
2024-01-01T07:35:04.743Z,5.70
2024-01-01T07:37:31.560Z,5.70
2024-01-01T07:39:58.381Z,5.70
2024-01-01T07:42:26.697Z,5.70
2024-01-01T07:44:53.798Z,5.70
2024-01-01T07:47:20.956Z,5.70
2024-01-01T07:49:48.022Z,5.70
2024-01-01T07:52:17.018Z,5.70
2024-01-01T07:54:43.983Z,5.70
2024-01-01T07:57:10.927Z,5.70
2024-01-01T07:59:37.728Z,5.70
2024-01-01T08:02:04.704Z,5.80
2024-01-01T08:04:31.662Z,5.90
2024-01-01T08:06:58.573Z,5.90
2024-01-01T08:09:25.592Z,5.90
2024-01-01T08:11:52.313Z,5.90
2024-01-01T08:14:19.229Z,5.90
2024-01-01T08:16:46.020Z,5.80
2024-01-01T08:19:13.018Z,5.80
2024-01-01T08:21:39.937Z,5.80
2024-01-01T08:24:07.336Z,5.80
2024-01-01T08:26:34.184Z,5.80
2024-01-01T08:29:01.070Z,5.90
2024-01-01T08:31:27.771Z,5.90
2024-01-01T08:33:54.688Z,5.90
2024-01-01T08:36:21.561Z,5.90
2024-01-01T08:38:48.576Z,6.00
2024-01-01T08:41:19.023Z,5.90
2024-01-01T08:43:47.455Z,5.90
2024-01-01T08:46:15.347Z,5.80
2024-01-01T08:48:42.217Z,5.80
2024-01-01T08:51:08.982Z,5.80
2024-01-01T08:53:36.371Z,5.70
2024-01-01T08:56:04.228Z,5.70
2024-01-01T08:58:31.500Z,5.60
2024-01-01T09:00:58.498Z,5.60
2024-01-01T09:03:25.362Z,5.60
2024-01-01T09:05:54.786Z,5.60
2024-01-01T09:08:21.663Z,5.50
2024-01-01T09:10:48.459Z,5.60
2024-01-01T09:13:15.289Z,5.50
2024-01-01T09:15:42.154Z,5.50
2024-01-01T09:18:09.889Z,5.60
2024-01-01T09:20:37.428Z,5.60
2024-01-01T09:23:04.407Z,5.50
2024-01-01T09:25:31.205Z,5.60
2024-01-01T09:27:58.004Z,5.50
2024-01-01T09:30:24.808Z,5.60
2024-01-01T09:32:51.647Z,5.60
2024-01-01T09:35:18.748Z,5.60
2024-01-01T09:37:45.779Z,5.60
2024-01-01T09:40:13.030Z,5.70
2024-01-01T09:42:47.497Z,5.70
2024-01-01T09:45:14.655Z,5.80
2024-01-01T09:47:44.494Z,5.70
2024-01-01T09:50:11.674Z,5.80
2024-01-01T09:52:39.315Z,5.80
2024-01-01T09:55:06.202Z,5.90
2024-01-01T09:57:33.187Z,5.90
2024-01-01T10:00:02.070Z,5.90
2024-01-01T10:02:31.780Z,5.80
2024-01-01T10:05:12.306Z,5.80
2024-01-01T10:07:39.180Z,5.80
2024-01-01T10:10:06.638Z,5.70
2024-01-01T10:12:36.292Z,5.60
2024-01-01T10:15:05.066Z,5.60
2024-01-01T10:17:32.445Z,5.60
2024-01-01T10:20:03.090Z,5.60
2024-01-01T10:22:33.610Z,5.60
2024-01-01T10:25:14.900Z,5.60
2024-01-01T10:27:45.800Z,5.60
2024-01-01T10:30:12.915Z,5.60
2024-01-01T10:32:42.063Z,5.70
2024-01-01T10:35:10.543Z,5.70
2024-01-01T10:37:37.685Z,5.80
2024-01-01T10:40:07.403Z,5.80
2024-01-01T10:42:35.270Z,5.90
2024-01-01T10:45:05.674Z,6.00
2024-01-01T10:47:33.322Z,5.90
2024-01-01T10:50:30.400Z,6.00
2024-01-01T10:53:12.856Z,6.00
2024-01-01T10:55:59.751Z,6.10
2024-01-01T10:58:43.370Z,6.00
2024-01-01T11:01:12.836Z,6.00
2024-01-01T11:03:40.234Z,6.10
2024-01-01T11:06:28.241Z,5.90
2024-01-01T11:08:56.016Z,6.00
2024-01-01T11:11:25.134Z,5.90
2024-01-01T11:13:53.258Z,5.90
2024-01-01T11:16:20.289Z,5.90
2024-01-01T11:18:50.509Z,5.90
2024-01-01T11:21:35.724Z,5.90
2024-01-01T11:24:20.556Z,5.90
2024-01-01T11:26:49.423Z,6.00
2024-01-01T11:29:19.350Z,6.00
2024-01-01T11:31:46.377Z,6.00
2024-01-01T11:34:24.235Z,6.00
2024-01-01T11:36:54.009Z,6.10
2024-01-01T11:39:26.130Z,6.10
2024-01-01T11:41:53.170Z,6.20
2024-01-01T11:44:20.327Z,6.10
2024-01-01T11:46:47.935Z,6.20
2024-01-01T11:49:15.100Z,6.20
2024-01-01T11:51:55.996Z,6.20
2024-01-01T11:54:26.729Z,6.20
2024-01-01T11:56:58.787Z,6.30
2024-01-01T11:59:27.933Z,6.20
2024-01-01T12:01:55.310Z,6.20
2024-01-01T12:04:22.658Z,6.30
2024-01-01T12:06:51.442Z,6.20
2024-01-01T12:09:19.642Z,6.30
2024-01-01T12:11:46.372Z,6.50
2024-01-01T12:14:13.270Z,6.60
2024-01-01T12:16:40.993Z,6.60
2024-01-01T12:19:13.419Z,6.60
2024-01-01T12:21:45.221Z,6.70
2024-01-01T12:24:23.174Z,6.70
2024-01-01T12:26:53.384Z,6.60
2024-01-01T12:29:21.743Z,6.60
2024-01-01T12:31:51.779Z,6.70
2024-01-01T12:34:20.182Z,6.70
2024-01-01T12:36:48.389Z,6.70
2024-01-01T12:39:17.609Z,6.70
2024-01-01T12:41:45.266Z,6.80
2024-01-01T12:44:12.536Z,6.90
2024-01-01T12:46:39.385Z,6.90
2024-01-01T12:49:06.897Z,6.90
2024-01-01T12:51:33.727Z,7.00
2024-01-01T12:54:04.863Z,7.00
2024-01-01T12:56:31.796Z,7.10
2024-01-01T12:58:58.702Z,7.10
2024-01-01T13:01:28.529Z,7.10
2024-01-01T13:03:57.213Z,7.20
2024-01-01T13:06:24.246Z,7.20
2024-01-01T13:08:51.285Z,7.20
2024-01-01T13:11:18.292Z,7.20
2024-01-01T13:13:45.597Z,7.20
2024-01-01T13:16:12.534Z,7.20
2024-01-01T13:18:39.418Z,7.10
2024-01-01T13:21:06.444Z,7.10
2024-01-01T13:23:34.169Z,7.00
2024-01-01T13:26:04.173Z,7.00
2024-01-01T13:28:31.560Z,7.10
2024-01-01T13:30:59.414Z,7.10
2024-01-01T13:33:26.546Z,7.10
2024-01-01T13:35:53.500Z,7.10
2024-01-01T13:38:20.337Z,7.10
2024-01-01T13:40:47.201Z,7.20
2024-01-01T13:43:15.951Z,7.10
2024-01-01T13:45:42.732Z,7.20
2024-01-01T13:48:13.655Z,7.20
2024-01-01T13:50:40.711Z,7.20
2024-01-01T13:53:07.961Z,7.30
2024-01-01T13:55:35.786Z,7.20
2024-01-01T13:58:04.625Z,7.20
2024-01-01T14:00:32.119Z,7.20
2024-01-01T14:02:59.743Z,7.20
2024-01-01T14:05:28.651Z,7.20
2024-01-01T14:07:55.724Z,7.20
2024-01-01T14:10:22.600Z,7.20
2024-01-01T14:12:49.998Z,7.20
2024-01-01T14:15:24.910Z,7.30
2024-01-01T14:17:52.925Z,7.20
2024-01-01T14:20:22.329Z,7.20
2024-01-01T14:22:50.008Z,7.20
2024-01-01T14:25:17.383Z,7.30
2024-01-01T14:27:44.269Z,7.30
2024-01-01T14:30:11.870Z,7.20
2024-01-01T14:32:39.386Z,7.20
2024-01-01T14:35:06.803Z,7.20
2024-01-01T14:37:33.692Z,7.30
2024-01-01T14:40:00.577Z,7.20
2024-01-01T14:42:27.437Z,7.20
2024-01-01T14:44:54.591Z,7.20
2024-01-01T14:47:21.595Z,7.20
2024-01-01T14:49:49.896Z,7.20
2024-01-01T14:52:18.222Z,7.10
2024-01-01T14:54:44.978Z,7.10
2024-01-01T14:57:12.434Z,7.10
2024-01-01T14:59:39.220Z,7.10
2024-01-01T15:02:06.168Z,7.10
2024-01-01T15:04:33.403Z,7.10
2024-01-01T15:07:00.322Z,7.10
2024-01-01T15:09:27.014Z,7.10
2024-01-01T15:11:54.038Z,7.00
2024-01-01T15:14:20.978Z,7.10
2024-01-01T15:16:47.774Z,7.00
2024-01-01T15:19:14.765Z,7.00
2024-01-01T15:21:44.050Z,7.00
2024-01-01T15:24:10.867Z,7.10
2024-01-01T15:26:37.775Z,7.00
2024-01-01T15:29:04.625Z,7.00
2024-01-01T15:31:31.429Z,7.00
2024-01-01T15:33:58.334Z,7.00
2024-01-01T15:36:25.239Z,7.00
2024-01-01T15:38:51.905Z,6.90
2024-01-01T15:41:19.334Z,6.90
2024-01-01T15:43:46.240Z,6.90
2024-01-01T15:46:13.479Z,6.90
2024-01-01T15:48:40.430Z,6.90
2024-01-01T15:51:10.855Z,6.90
2024-01-01T15:53:40.703Z,6.90
2024-01-01T15:56:08.377Z,6.90
2024-01-01T15:58:35.247Z,6.90
2024-01-01T16:01:04.005Z,6.80
2024-01-01T16:03:31.283Z,6.80
2024-01-01T16:05:58.363Z,6.80
2024-01-01T16:08:25.448Z,6.80
2024-01-01T16:10:52.511Z,6.80
2024-01-01T16:13:20.473Z,6.80
2024-01-01T16:15:49.302Z,6.70
2024-01-01T16:18:16.150Z,6.60
2024-01-01T16:20:43.145Z,6.60
2024-01-01T16:23:10.660Z,6.50
2024-01-01T16:25:37.622Z,6.50
2024-01-01T16:28:04.836Z,6.50
2024-01-01T16:30:31.759Z,6.50
2024-01-01T16:32:58.693Z,6.50
2024-01-01T16:35:25.832Z,6.40
2024-01-01T16:37:52.962Z,6.40
2024-01-01T16:40:21.666Z,6.40
2024-01-01T16:42:49.723Z,6.40
2024-01-01T16:45:16.437Z,6.30
2024-01-01T16:47:43.302Z,6.30
2024-01-01T16:50:10.766Z,6.20
2024-01-01T16:52:38.028Z,6.20
2024-01-01T16:55:05.537Z,6.10
2024-01-01T16:57:32.396Z,6.20
2024-01-01T17:00:00.838Z,6.20
2024-01-01T17:02:27.848Z,6.20
2024-01-01T17:04:54.800Z,6.10
2024-01-01T17:07:22.019Z,6.20
2024-01-01T17:09:49.129Z,6.20
2024-01-01T17:12:16.009Z,6.20
2024-01-01T17:14:43.015Z,6.20
2024-01-01T17:17:09.949Z,6.30
2024-01-01T17:19:37.051Z,6.30
2024-01-01T17:22:04.083Z,6.30
2024-01-01T17:24:31.178Z,6.30
2024-01-01T17:26:58.100Z,6.30
2024-01-01T17:29:25.590Z,6.30
2024-01-01T17:31:52.482Z,6.40
2024-01-01T17:34:19.419Z,6.30
2024-01-01T17:36:46.292Z,6.40
2024-01-01T17:39:13.183Z,6.30
2024-01-01T17:41:40.030Z,6.30
2024-01-01T17:44:07.540Z,6.30
2024-01-01T17:46:34.586Z,6.30
2024-01-01T17:49:01.393Z,6.30
2024-01-01T17:51:28.285Z,6.20
2024-01-01T17:53:55.340Z,6.20
2024-01-01T17:56:22.235Z,6.20
2024-01-01T17:58:53.494Z,6.20
2024-01-01T18:01:23.512Z,6.20
2024-01-01T18:03:50.416Z,6.10
2024-01-01T18:06:17.418Z,6.20
2024-01-01T18:08:44.437Z,6.20
2024-01-01T18:11:19.167Z,6.20
2024-01-01T18:13:46.573Z,6.20
2024-01-01T18:16:14.012Z,6.20
2024-01-01T18:18:46.952Z,6.20
2024-01-01T18:21:15.216Z,6.30
2024-01-01T18:23:42.267Z,6.20
2024-01-01T18:26:17.299Z,6.30
2024-01-01T18:28:44.218Z,6.30
2024-01-01T18:31:18.326Z,6.30
2024-01-01T18:33:45.983Z,6.30
2024-01-01T18:36:13.616Z,6.30
2024-01-01T18:38:40.448Z,6.30
2024-01-01T18:41:10.737Z,6.30
2024-01-01T18:43:37.609Z,6.30
2024-01-01T18:46:07.279Z,6.30
2024-01-01T18:48:37.385Z,6.30
2024-01-01T18:51:04.542Z,6.30
2024-01-01T18:53:31.983Z,6.30
2024-01-01T18:56:02.377Z,6.40
2024-01-01T18:58:31.805Z,6.40
2024-01-01T19:00:58.622Z,6.40
2024-01-01T19:03:25.416Z,6.40
2024-01-01T19:05:53.939Z,6.30
2024-01-01T19:08:20.917Z,6.30
2024-01-01T19:10:47.858Z,6.30
2024-01-01T19:13:14.805Z,6.30
2024-01-01T19:15:41.816Z,6.30
2024-01-01T19:18:09.050Z,6.30
2024-01-01T19:20:39.058Z,6.20
2024-01-01T19:23:06.155Z,6.30
2024-01-01T19:25:33.247Z,6.30
2024-01-01T19:27:59.938Z,6.30
2024-01-01T19:30:26.675Z,6.30
2024-01-01T19:32:53.520Z,6.30
2024-01-01T19:35:20.720Z,6.20
2024-01-01T19:37:47.646Z,6.20
2024-01-01T19:40:14.773Z,6.20
2024-01-01T19:42:41.917Z,6.10
2024-01-01T19:45:08.874Z,6.20
2024-01-01T19:47:35.788Z,6.20
2024-01-01T19:50:02.741Z,6.20
2024-01-01T19:52:29.723Z,6.20
2024-01-01T19:54:56.441Z,6.10
2024-01-01T19:57:23.138Z,6.20
2024-01-01T19:59:49.946Z,6.20
2024-01-01T20:02:17.677Z,6.10
2024-01-01T20:04:44.639Z,6.10
2024-01-01T20:07:11.416Z,6.10
2024-01-01T20:09:38.355Z,6.20
2024-01-01T20:12:18.361Z,6.20
2024-01-01T20:14:45.293Z,6.20
2024-01-01T20:17:14.592Z,6.20
2024-01-01T20:19:41.389Z,6.20
2024-01-01T20:22:08.293Z,6.20
2024-01-01T20:24:35.304Z,6.20
2024-01-01T20:27:02.195Z,6.20
2024-01-01T20:29:29.226Z,6.20
2024-01-01T20:31:56.119Z,6.20
2024-01-01T20:34:23.998Z,6.20
2024-01-01T20:36:51.406Z,6.10
2024-01-01T20:39:18.248Z,6.10
2024-01-01T20:41:45.467Z,6.10
2024-01-01T20:44:12.439Z,6.20
2024-01-01T20:46:39.723Z,6.10
2024-01-01T20:49:07.620Z,6.20
2024-01-01T20:51:34.604Z,6.20
2024-01-01T20:54:03.903Z,6.20
2024-01-01T20:56:31.556Z,6.20
2024-01-01T20:58:58.652Z,6.20
2024-01-01T21:01:25.718Z,6.30
2024-01-01T21:03:52.716Z,6.30
2024-01-01T21:06:19.652Z,6.30
2024-01-01T21:08:46.587Z,6.30
2024-01-01T21:11:13.468Z,6.30
2024-01-01T21:13:40.332Z,6.30
2024-01-01T21:16:07.437Z,6.30
2024-01-01T21:18:34.723Z,6.30
2024-01-01T21:21:01.913Z,6.40
2024-01-01T21:23:29.127Z,6.30
2024-01-01T21:25:56.907Z,6.30
2024-01-01T21:28:24.342Z,6.40
2024-01-01T21:30:51.432Z,6.40
2024-01-01T21:33:18.742Z,6.40
2024-01-01T21:35:45.750Z,6.40
2024-01-01T21:38:12.788Z,6.40
2024-01-01T21:40:39.865Z,6.40
2024-01-01T21:43:07.588Z,6.50
2024-01-01T21:45:34.845Z,6.40
2024-01-01T21:48:03.320Z,6.50
2024-01-01T21:50:33.127Z,6.50
2024-01-01T21:53:00.404Z,6.50
2024-01-01T21:55:27.348Z,6.50
2024-01-01T21:57:54.315Z,6.50
2024-01-01T22:00:21.594Z,6.50
2024-01-01T22:02:50.567Z,6.50
2024-01-01T22:05:18.547Z,6.60
2024-01-01T22:07:45.811Z,6.60
2024-01-01T22:10:16.579Z,6.60
2024-01-01T22:12:43.455Z,6.60
2024-01-01T22:15:14.788Z,6.50
2024-01-01T22:17:46.828Z,6.50
2024-01-01T22:20:13.968Z,6.50
2024-01-01T22:22:41.044Z,6.50
2024-01-01T22:25:08.195Z,6.50
2024-01-01T22:27:34.924Z,6.50
2024-01-01T22:30:03.697Z,6.50
2024-01-01T22:32:30.812Z,6.50
2024-01-01T22:34:57.876Z,6.50
2024-01-01T22:37:27.654Z,6.50
2024-01-01T22:39:54.429Z,6.50
2024-01-01T22:42:21.191Z,6.50
2024-01-01T22:44:47.989Z,6.50
2024-01-01T22:47:14.940Z,6.40
2024-01-01T22:49:41.824Z,6.50
2024-01-01T22:52:08.727Z,6.50
2024-01-01T22:54:35.459Z,6.40
2024-01-01T22:57:02.471Z,6.40
2024-01-01T22:59:29.260Z,6.40
2024-01-01T23:01:56.302Z,6.50
2024-01-01T23:04:23.203Z,6.40
2024-01-01T23:06:50.061Z,6.50
2024-01-01T23:09:16.821Z,6.40
2024-01-01T23:11:43.638Z,6.40
2024-01-01T23:14:10.485Z,6.50
2024-01-01T23:16:37.328Z,6.40
2024-01-01T23:19:05.113Z,6.50
2024-01-01T23:21:35.932Z,6.50
2024-01-01T23:24:03.280Z,6.40
2024-01-01T23:26:30.931Z,6.40
2024-01-01T23:28:59.764Z,6.40
2024-01-01T23:31:26.747Z,6.40
2024-01-01T23:34:04.197Z,6.40
2024-01-01T23:36:37.656Z,6.40
2024-01-01T23:39:04.668Z,6.40
2024-01-01T23:41:31.572Z,6.40
2024-01-01T23:43:58.564Z,6.40
2024-01-01T23:46:25.881Z,6.40
2024-01-01T23:48:52.708Z,6.40
2024-01-01T23:51:19.487Z,6.40
2024-01-01T23:53:46.232Z,6.40
2024-01-01T23:56:13.056Z,6.40
2024-01-01T23:58:39.924Z,6.30
